Time;durP1;ratioP1;P1;durP2;ratioP2;P2;SDS_P1;SDS_P2;PMS_P1;PMS_P2;Temp;Humidity;BMP_temperature;BMP_pressure;BME280_temperature;BME280_humidity;BME280_pressure;Samples;Min_cycle;Max_cycle;Signal;HPM_P1;HPM_P2
2022/06/11 00:01:53;;;;;;;;;;;12.20;99.90;;;;;;4993789;28;19936;-74
2022/06/11 00:04:30;;;;;;;;;;;12.20;99.90;;;;;;4993885;28;19910;-74
2022/06/11 00:07:00;;;;;;;;;;;12.30;99.90;;;;;;4993649;28;19963;-75
2022/06/11 00:09:27;;;;;;;;;;;12.40;99.90;;;;;;4994184;28;19914;-76
2022/06/11 00:11:54;;;;;;;;;;;12.40;99.90;;;;;;4993719;28;20422;-77
2022/06/11 00:14:23;;;;;;;;;;;12.40;99.90;;;;;;4993830;28;19963;-75
2022/06/11 00:16:49;;;;;;;;;;;12.50;99.90;;;;;;4993143;28;19910;-75
2022/06/11 00:19:18;;;;;;;;;;;12.60;99.90;;;;;;4993956;28;20280;-76
2022/06/11 00:21:46;;;;;;;;;;;12.60;99.90;;;;;;4993454;28;19910;-74
2022/06/11 00:24:13;;;;;;;;;;;12.70;99.90;;;;;;4994324;28;19910;-76
2022/06/11 00:26:42;;;;;;;;;;;12.80;99.90;;;;;;4994054;28;19922;-76
2022/06/11 00:29:09;;;;;;;;;;;12.70;99.90;;;;;;4994156;28;20356;-77
2022/06/11 00:31:36;;;;;;;;;;;12.80;99.90;;;;;;4993789;28;19910;-76
2022/06/11 00:34:03;;;;;;;;;;;12.90;99.90;;;;;;4994169;28;19937;-77
2022/06/11 00:36:30;;;;;;;;;;;12.90;99.80;;;;;;4993740;28;19969;-77
2022/06/11 00:38:57;;;;;;;;;;;12.90;99.90;;;;;;4993745;28;19914;-75
2022/06/11 00:41:25;;;;;;;;;;;12.90;99.50;;;;;;4993758;28;19917;-76
2022/06/11 00:43:53;;;;;;;;;;;12.90;99.80;;;;;;4976078;28;20276;-76
2022/06/11 00:46:39;;;;;;;;;;;12.90;99.90;;;;;;4995856;28;20008;-74
2022/06/11 00:49:12;;;;;;;;;;;13.00;99.90;;;;;;5000603;28;20000;-74
2022/06/11 00:51:39;;;;;;;;;;;13.00;99.20;;;;;;4995717;28;19910;-74
2022/06/11 00:54:08;;;;;;;;;;;13.10;99.50;;;;;;4992626;28;19922;-74
2022/06/11 00:56:37;;;;;;;;;;;13.10;99.50;;;;;;4992908;28;19910;-75
2022/06/11 00:59:06;;;;;;;;;;;13.20;99.60;;;;;;4992785;28;19914;-74
2022/06/11 01:01:33;;;;;;;;;;;13.40;98.90;;;;;;4992611;28;20280;-76
2022/06/11 01:04:01;;;;;;;;;;;13.70;98.70;;;;;;4992676;28;19910;-75
2022/06/11 01:06:51;;;;;;;;;;;13.90;99.10;;;;;;4992674;28;19924;-75
2022/06/11 01:09:25;;;;;;;;;;;14.10;98.70;;;;;;4992713;28;19922;-76
2022/06/11 01:11:52;;;;;;;;;;;14.20;97.80;;;;;;4992444;28;20371;-76
2022/06/11 01:14:57;;;;;;;;;;;14.40;97.80;;;;;;4992303;28;20004;-77
2022/06/11 01:17:36;;;;;;;;;;;14.60;97.30;;;;;;4971007;28;20066;-76
2022/06/11 01:20:10;;;;;;;;;;;14.60;97.40;;;;;;4970998;28;19910;-76
2022/06/11 01:23:01;;;;;;;;;;;14.50;97.20;;;;;;4984055;28;19960;-77
2022/06/11 01:25:28;;;;;;;;;;;14.50;97.30;;;;;;4992449;28;19965;-76
2022/06/11 01:28:12;;;;;;;;;;;14.40;97.50;;;;;;4993544;28;19910;-74
2022/06/11 01:30:56;;;;;;;;;;;14.30;97.50;;;;;;4995937;28;19910;-75
2022/06/11 01:33:41;;;;;;;;;;;14.20;98.30;;;;;;4995864;28;19910;-76
2022/06/11 01:36:16;;;;;;;;;;;14.20;97.60;;;;;;4995977;28;19917;-76
2022/06/11 01:38:52;;;;;;;;;;;14.10;97.80;;;;;;4995829;28;19948;-77
2022/06/11 01:41:29;;;;;;;;;;;14.20;97.90;;;;;;4996081;28;20001;-77
2022/06/11 01:43:59;;;;;;;;;;;14.10;97.80;;;;;;4995675;28;19917;-76
2022/06/11 01:46:28;;;;;;;;;;;14.10;98.20;;;;;;4995441;28;19922;-76
2022/06/11 01:48:57;;;;;;;;;;;14.10;98.70;;;;;;4995647;28;20291;-77
2022/06/11 01:51:43;;;;;;;;;;;14.10;98.20;;;;;;4995662;28;20391;-77
2022/06/11 01:54:25;;;;;;;;;;;14.10;97.60;;;;;;4984343;28;20360;-76
2022/06/11 01:57:01;;;;;;;;;;;14.10;98.00;;;;;;4995744;28;19917;-77
2022/06/11 01:59:30;;;;;;;;;;;14.00;98.50;;;;;;4995350;28;19914;-77
2022/06/11 02:02:03;;;;;;;;;;;14.00;98.50;;;;;;4995352;28;20365;-77
2022/06/11 02:04:35;;;;;;;;;;;14.00;98.90;;;;;;4995120;28;19910;-77
2022/06/11 02:07:04;;;;;;;;;;;14.00;98.30;;;;;;4995089;28;19917;-77
2022/06/11 02:09:49;;;;;;;;;;;14.00;98.10;;;;;;4995069;28;20047;-77
2022/06/11 02:12:22;;;;;;;;;;;14.10;97.70;;;;;;4995128;28;20373;-77
2022/06/11 02:14:48;;;;;;;;;;;14.10;97.90;;;;;;4995097;28;19992;-77
2022/06/11 02:17:18;;;;;;;;;;;14.10;98.10;;;;;;4994933;28;19910;-77
2022/06/11 02:19:53;;;;;;;;;;;14.10;98.50;;;;;;4994691;28;19934;-77
2022/06/11 02:22:25;;;;;;;;;;;14.20;98.10;;;;;;5009801;28;19945;-77
2022/06/11 02:24:55;;;;;;;;;;;14.20;98.20;;;;;;4994893;28;19914;-77
2022/06/11 02:27:27;;;;;;;;;;;14.20;97.90;;;;;;4994900;28;19972;-77
2022/06/11 02:29:55;;;;;;;;;;;14.30;97.90;;;;;;4994583;28;19923;-77
2022/06/11 02:32:22;;;;;;;;;;;14.30;97.50;;;;;;4994778;28;19917;-77
2022/06/11 02:34:51;;;;;;;;;;;14.30;98.00;;;;;;4994745;28;20368;-77
2022/06/11 02:37:21;;;;;;;;;;;14.40;97.90;;;;;;4994769;28;19913;-77
2022/06/11 02:39:48;;;;;;;;;;;14.40;97.60;;;;;;4993806;28;19993;-77
2022/06/11 02:42:17;;;;;;;;;;;14.40;97.90;;;;;;4994355;28;19916;-78
2022/06/11 02:44:44;;;;;;;;;;;14.40;97.80;;;;;;4994600;28;20320;-77
2022/06/11 02:47:11;;;;;;;;;;;14.50;97.50;;;;;;4994546;28;19920;-77
2022/06/11 02:49:39;;;;;;;;;;;14.50;97.30;;;;;;4976870;28;19910;-77
2022/06/11 02:52:08;;;;;;;;;;;14.50;97.70;;;;;;4994422;28;20007;-76
2022/06/11 02:54:35;;;;;;;;;;;14.50;98.10;;;;;;4977160;28;19921;-77
2022/06/11 02:57:03;;;;;;;;;;;14.60;97.20;;;;;;4994438;28;20380;-76
2022/06/11 02:59:30;;;;;;;;;;;14.60;97.30;;;;;;4994273;28;20276;-77
2022/06/11 03:01:57;;;;;;;;;;;14.60;97.50;;;;;;4994158;28;19925;-76
2022/06/11 03:04:24;;;;;;;;;;;14.60;97.60;;;;;;4994219;28;19910;-77
2022/06/11 03:06:51;;;;;;;;;;;14.70;97.80;;;;;;4994014;28;20009;-77
2022/06/11 03:09:22;;;;;;;;;;;14.60;97.40;;;;;;4993841;28;19992;-77
2022/06/11 03:11:49;;;;;;;;;;;14.80;96.70;;;;;;4976273;28;19964;-77
2022/06/11 03:14:16;;;;;;;;;;;14.80;97.00;;;;;;4994069;28;20332;-77
2022/06/11 03:16:44;;;;;;;;;;;14.80;96.90;;;;;;4993832;28;19910;-76
2022/06/11 03:19:11;;;;;;;;;;;14.90;96.20;;;;;;4994002;28;19914;-76
2022/06/11 03:21:38;;;;;;;;;;;14.90;97.20;;;;;;4993716;28;19909;-75
2022/06/11 03:24:05;;;;;;;;;;;15.00;96.80;;;;;;5019046;28;19909;-77
2022/06/11 03:26:32;;;;;;;;;;;15.10;96.80;;;;;;5033866;28;19917;-78
2022/06/11 03:28:59;;;;;;;;;;;15.10;96.20;;;;;;5033817;28;20004;-79
2022/06/11 03:31:25;;;;;;;;;;;15.10;95.60;;;;;;5033573;28;19909;-77
2022/06/11 03:33:52;;;;;;;;;;;15.10;95.20;;;;;;5033493;28;19909;-76
2022/06/11 03:36:19;;;;;;;;;;;15.00;95.70;;;;;;5033037;28;19909;-77
2022/06/11 03:38:47;;;;;;;;;;;15.00;94.70;;;;;;5033871;28;19937;-76
2022/06/11 03:41:14;;;;;;;;;;;15.10;94.60;;;;;;5033622;28;19916;-78
2022/06/11 03:43:42;;;;;;;;;;;15.20;93.90;;;;;;5033506;28;19999;-77
2022/06/11 03:46:08;;;;;;;;;;;15.20;94.20;;;;;;5033409;28;20295;-79
2022/06/11 03:48:36;;;;;;;;;;;15.10;94.20;;;;;;5033368;28;19978;-77
2022/06/11 03:51:04;;;;;;;;;;;15.10;94.50;;;;;;5031955;28;20012;-77
2022/06/11 03:53:31;;;;;;;;;;;15.10;94.70;;;;;;5033044;28;20012;-76
2022/06/11 03:55:58;;;;;;;;;;;15.20;94.70;;;;;;5033374;28;19936;-76
2022/06/11 03:58:25;;;;;;;;;;;15.10;95.20;;;;;;5032969;28;19909;-76
2022/06/11 04:03:38;;;;;;;;;;;15.20;94.70;;;;;;5033502;28;19944;-76
2022/06/11 04:06:05;;;;;;;;;;;15.20;94.60;;;;;;5033236;28;20008;-76
2022/06/11 04:08:32;;;;;;;;;;;15.20;94.90;;;;;;5033116;28;19931;-76
2022/06/11 04:11:00;;;;;;;;;;;15.20;95.00;;;;;;5033121;28;20382;-73
2022/06/11 04:13:27;;;;;;;;;;;15.30;94.90;;;;;;5033003;28;19913;-74
2022/06/11 04:15:55;;;;;;;;;;;15.30;94.20;;;;;;5033022;28;19910;-77
2022/06/11 04:18:33;;;;;;;;;;;15.30;94.40;;;;;;5031281;28;20367;-77
2022/06/11 04:21:00;;;;;;;;;;;15.40;94.20;;;;;;5014915;28;20012;-74
2022/06/11 04:23:29;;;;;;;;;;;15.40;93.90;;;;;;5028775;28;19995;-77
2022/06/11 04:25:57;;;;;;;;;;;15.30;94.30;;;;;;5033193;28;19923;-75
2022/06/11 04:28:28;;;;;;;;;;;15.20;94.60;;;;;;5015571;28;20321;-76
2022/06/11 04:30:56;;;;;;;;;;;15.10;94.50;;;;;;5033326;28;19909;-77
2022/06/11 04:33:23;;;;;;;;;;;15.10;94.50;;;;;;5032916;28;19927;-76
2022/06/11 04:35:50;;;;;;;;;;;15.10;94.60;;;;;;5032768;28;20000;-76
2022/06/11 04:38:17;;;;;;;;;;;15.10;94.50;;;;;;5032997;28;19920;-76
2022/06/11 04:40:44;;;;;;;;;;;15.00;95.00;;;;;;5032945;28;20360;-76
2022/06/11 04:43:11;;;;;;;;;;;15.00;94.60;;;;;;5032597;28;20009;-76
2022/06/11 04:45:38;;;;;;;;;;;15.00;94.70;;;;;;5032390;28;19943;-77
2022/06/11 04:48:05;;;;;;;;;;;15.00;94.90;;;;;;5032783;28;20368;-75
2022/06/11 04:50:32;;;;;;;;;;;14.90;94.40;;;;;;5032480;28;19917;-76
2022/06/11 04:52:58;;;;;;;;;;;15.00;94.20;;;;;;5047839;28;20618;-77
2022/06/11 04:55:25;;;;;;;;;;;14.90;94.80;;;;;;5032586;28;19913;-76
2022/06/11 04:57:52;;;;;;;;;;;14.90;94.90;;;;;;5032289;28;19913;-77
2022/06/11 05:00:23;;;;;;;;;;;14.90;94.90;;;;;;5032661;28;19936;-77
2022/06/11 05:02:50;;;;;;;;;;;14.80;94.90;;;;;;5034127;28;19937;-76
2022/06/11 05:05:17;;;;;;;;;;;14.90;94.40;;;;;;5036454;28;19917;-77
2022/06/11 05:07:45;;;;;;;;;;;14.90;94.60;;;;;;5035647;28;19921;-76
2022/06/11 05:10:12;;;;;;;;;;;15.00;94.10;;;;;;5036366;28;20352;-76
2022/06/11 05:12:39;;;;;;;;;;;15.00;93.90;;;;;;5036067;28;20387;-75
2022/06/11 05:15:06;;;;;;;;;;;14.90;93.90;;;;;;5035982;28;19944;-75
2022/06/11 05:17:33;;;;;;;;;;;14.90;94.20;;;;;;5035859;28;19910;-76
2022/06/11 05:20:00;;;;;;;;;;;14.90;93.90;;;;;;5034693;28;19917;-76
2022/06/11 05:22:27;;;;;;;;;;;14.80;93.90;;;;;;5036133;28;19913;-76
2022/06/11 05:24:53;;;;;;;;;;;14.80;93.90;;;;;;5035886;28;20026;-77
2022/06/11 05:27:21;;;;;;;;;;;14.80;93.70;;;;;;5036161;28;20255;-77
2022/06/11 05:30:07;;;;;;;;;;;14.70;94.20;;;;;;5035867;28;20348;-77
2022/06/11 05:32:35;;;;;;;;;;;14.60;94.20;;;;;;5035715;28;19909;-76
2022/06/11 05:35:03;;;;;;;;;;;14.70;93.70;;;;;;5035793;28;19917;-76
2022/06/11 05:37:29;;;;;;;;;;;14.70;93.70;;;;;;5035629;28;20280;-77
2022/06/11 05:39:56;;;;;;;;;;;14.70;94.00;;;;;;5035777;28;19909;-74
2022/06/11 05:42:24;;;;;;;;;;;14.70;93.90;;;;;;5035620;28;20004;-76
2022/06/11 05:44:50;;;;;;;;;;;14.70;95.10;;;;;;5035789;28;19909;-76
2022/06/11 05:47:19;;;;;;;;;;;14.70;94.10;;;;;;5035738;28;20401;-76
2022/06/11 05:49:48;;;;;;;;;;;14.60;94.50;;;;;;5035507;28;19909;-76
2022/06/11 05:52:21;;;;;;;;;;;14.60;94.30;;;;;;5035568;28;20272;-76
2022/06/11 05:54:50;;;;;;;;;;;14.50;94.30;;;;;;5050953;28;19917;-77
2022/06/11 05:57:20;;;;;;;;;;;14.40;95.00;;;;;;5035338;28;19920;-74
2022/06/11 05:59:50;;;;;;;;;;;14.50;94.00;;;;;;5035003;28;19913;-75
2022/06/11 06:02:19;;;;;;;;;;;14.50;93.90;;;;;;5035203;28;19920;-75
2022/06/11 06:04:46;;;;;;;;;;;14.50;94.50;;;;;;5028660;28;19920;-75
2022/06/11 06:07:12;;;;;;;;;;;14.50;94.90;;;;;;5004290;28;19913;-74
2022/06/11 06:09:39;;;;;;;;;;;14.40;94.50;;;;;;4995124;28;19916;-75
2022/06/11 06:12:07;;;;;;;;;;;14.40;94.10;;;;;;5021347;28;19909;-75
2022/06/11 06:14:34;;;;;;;;;;;14.40;94.30;;;;;;5033942;28;19910;-75
2022/06/11 06:17:00;;;;;;;;;;;14.40;94.70;;;;;;5035304;28;20099;-76
2022/06/11 06:19:27;;;;;;;;;;;14.30;93.70;;;;;;5035364;28;19967;-75
2022/06/11 06:21:54;;;;;;;;;;;14.30;93.60;;;;;;5035008;28;19909;-75
2022/06/11 06:24:21;;;;;;;;;;;14.30;93.70;;;;;;5035002;28;20355;-76
2022/06/11 06:26:47;;;;;;;;;;;14.30;93.80;;;;;;5034780;28;19921;-76
2022/06/11 06:29:14;;;;;;;;;;;14.20;93.70;;;;;;5034785;28;19963;-75
2022/06/11 06:31:41;;;;;;;;;;;14.20;93.40;;;;;;5034738;28;19979;-76
2022/06/11 06:34:07;;;;;;;;;;;14.10;93.80;;;;;;5034893;28;20004;-76
2022/06/11 06:36:34;;;;;;;;;;;14.10;94.00;;;;;;5034687;28;19909;-76
2022/06/11 06:39:01;;;;;;;;;;;14.10;93.10;;;;;;5033557;28;19910;-75
2022/06/11 06:41:28;;;;;;;;;;;14.00;93.20;;;;;;5034780;28;20001;-75
2022/06/11 06:43:55;;;;;;;;;;;14.00;93.60;;;;;;5034498;28;19956;-76
2022/06/11 06:46:22;;;;;;;;;;;13.90;93.30;;;;;;5034747;28;19940;-76
2022/06/11 06:48:49;;;;;;;;;;;13.90;93.80;;;;;;5034720;28;20335;-76
2022/06/11 06:51:18;;;;;;;;;;;13.80;93.80;;;;;;5034711;28;20340;-75
2022/06/11 06:53:45;;;;;;;;;;;13.80;94.00;;;;;;5034299;28;19922;-75
2022/06/11 06:56:12;;;;;;;;;;;13.80;94.30;;;;;;5034256;28;19916;-75
2022/06/11 06:58:39;;;;;;;;;;;13.70;94.50;;;;;;5033623;28;19917;-74
2022/06/11 07:01:06;;;;;;;;;;;13.70;94.40;;;;;;5034314;28;19909;-75
2022/06/11 07:03:32;;;;;;;;;;;13.60;94.20;;;;;;5034026;28;20257;-75
2022/06/11 07:06:01;;;;;;;;;;;13.60;94.40;;;;;;5033911;28;19924;-76
2022/06/11 07:08:28;;;;;;;;;;;13.60;94.40;;;;;;5034160;28;19909;-76
2022/06/11 07:10:55;;;;;;;;;;;13.60;94.10;;;;;;5033259;28;19926;-76
2022/06/11 07:13:21;;;;;;;;;;;13.60;94.80;;;;;;5033765;28;19909;-74
2022/06/11 07:15:51;;;;;;;;;;;13.50;94.30;;;;;;5033599;28;20328;-76
2022/06/11 07:18:20;;;;;;;;;;;13.40;94.30;;;;;;5034029;28;20468;-75
2022/06/11 07:20:48;;;;;;;;;;;13.40;94.20;;;;;;5033647;28;19948;-75
2022/06/11 07:23:20;;;;;;;;;;;13.40;94.50;;;;;;5033995;28;20441;-77
2022/06/11 07:25:49;;;;;;;;;;;13.40;94.70;;;;;;5033137;28;19925;-76
2022/06/11 07:28:24;;;;;;;;;;;13.30;94.60;;;;;;5033678;28;19909;-77
2022/06/11 07:30:50;;;;;;;;;;;13.30;94.60;;;;;;5033662;28;20368;-77
2022/06/11 07:33:19;;;;;;;;;;;13.30;94.70;;;;;;5033533;28;19913;-75
2022/06/11 07:35:47;;;;;;;;;;;13.20;94.70;;;;;;5033413;28;19955;-75
2022/06/11 07:38:14;;;;;;;;;;;13.20;94.80;;;;;;5033710;28;19918;-75
2022/06/11 07:40:42;;;;;;;;;;;13.10;94.90;;;;;;5033573;28;19932;-75
2022/06/11 07:43:09;;;;;;;;;;;13.10;95.30;;;;;;5033693;28;19909;-75
2022/06/11 07:45:37;;;;;;;;;;;13.00;95.10;;;;;;5031849;28;20399;-76
2022/06/11 07:48:04;;;;;;;;;;;13.00;95.30;;;;;;5032007;28;20012;-76
2022/06/11 07:50:33;;;;;;;;;;;13.00;95.20;;;;;;5031514;28;20382;-76
2022/06/11 07:53:00;;;;;;;;;;;13.00;95.50;;;;;;5031218;28;19925;-77
2022/06/11 07:55:27;;;;;;;;;;;12.90;95.70;;;;;;5031327;28;20012;-77
2022/06/11 07:57:55;;;;;;;;;;;12.90;95.50;;;;;;5031207;28;20368;-74
2022/06/11 08:00:24;;;;;;;;;;;12.80;95.50;;;;;;5031046;28;19909;-74
2022/06/11 08:02:57;;;;;;;;;;;12.80;95.60;;;;;;5030676;28;19909;-74
2022/06/11 08:05:25;;;;;;;;;;;12.80;95.60;;;;;;4992481;28;19917;-75
2022/06/11 08:07:51;;;;;;;;;;;12.70;96.30;;;;;;4991719;28;19936;-76
2022/06/11 08:10:19;;;;;;;;;;;12.70;95.70;;;;;;4991631;28;19964;-76
2022/06/11 08:12:46;;;;;;;;;;;12.70;95.90;;;;;;4991752;28;19910;-75
2022/06/11 08:15:12;;;;;;;;;;;12.70;96.60;;;;;;4991627;28;20049;-75
2022/06/11 08:17:42;;;;;;;;;;;12.70;96.30;;;;;;4991032;28;19913;-75
2022/06/11 08:20:12;;;;;;;;;;;12.60;96.50;;;;;;4991635;28;19996;-75
2022/06/11 08:22:39;;;;;;;;;;;12.50;96.10;;;;;;4991481;28;19913;-75
2022/06/11 08:25:06;;;;;;;;;;;12.50;96.50;;;;;;4991489;28;19985;-76
2022/06/11 08:27:32;;;;;;;;;;;12.50;96.70;;;;;;4991240;28;19917;-75
2022/06/11 08:29:59;;;;;;;;;;;12.40;96.70;;;;;;4991109;28;20221;-75
2022/06/11 08:32:26;;;;;;;;;;;12.40;97.00;;;;;;4991228;28;19949;-75
2022/06/11 08:34:52;;;;;;;;;;;12.40;97.10;;;;;;4991221;28;19916;-76
2022/06/11 08:37:19;;;;;;;;;;;12.30;97.40;;;;;;4992144;28;19909;-76
2022/06/11 08:39:46;;;;;;;;;;;12.20;97.20;;;;;;4995409;28;19910;-76
2022/06/11 08:42:35;;;;;;;;;;;12.20;97.00;;;;;;4995219;28;19914;-76
2022/06/11 08:45:20;;;;;;;;;;;12.10;97.80;;;;;;5002140;28;19940;-76
2022/06/11 08:47:55;;;;;;;;;;;12.10;97.30;;;;;;5008911;28;19940;-76
2022/06/11 08:50:27;;;;;;;;;;;12.10;97.50;;;;;;5015016;28;19956;-76
2022/06/11 08:52:55;;;;;;;;;;;12.00;97.40;;;;;;5014662;28;20397;-77
2022/06/11 08:55:23;;;;;;;;;;;12.00;97.80;;;;;;5014515;28;19959;-76
2022/06/11 08:58:02;;;;;;;;;;;11.90;97.90;;;;;;5014442;28;20485;-76
2022/06/11 09:00:40;;;;;;;;;;;11.90;98.50;;;;;;5014831;28;19910;-76
2022/06/11 09:03:06;;;;;;;;;;;11.90;98.40;;;;;;5013821;28;19914;-76
2022/06/11 09:05:51;;;;;;;;;;;11.90;97.80;;;;;;5014106;28;19953;-76
2022/06/11 09:08:21;;;;;;;;;;;11.90;98.00;;;;;;5014867;28;20012;-76
2022/06/11 09:11:05;;;;;;;;;;;11.80;97.80;;;;;;5014737;28;19996;-75
2022/06/11 09:13:47;;;;;;;;;;;11.80;98.10;;;;;;5014767;28;20265;-75
2022/06/11 09:16:23;;;;;;;;;;;11.80;98.00;;;;;;5014704;28;19975;-76
2022/06/11 09:18:53;;;;;;;;;;;11.80;97.50;;;;;;5015909;28;19910;-75
2022/06/11 09:21:19;;;;;;;;;;;11.80;98.10;;;;;;5016601;28;20303;-75
2022/06/11 09:24:21;;;;;;;;;;;11.80;97.40;;;;;;5016329;28;19917;-75
2022/06/11 09:27:04;;;;;;;;;;;11.70;97.60;;;;;;4975106;28;19930;-76
2022/06/11 09:29:43;;;;;;;;;;;11.70;98.00;;;;;;5012721;28;19910;-75
2022/06/11 09:32:15;;;;;;;;;;;11.70;97.90;;;;;;5015481;28;20004;-75
2022/06/11 09:35:01;;;;;;;;;;;11.70;97.50;;;;;;5016014;28;19913;-76
2022/06/11 09:37:38;;;;;;;;;;;11.70;97.80;;;;;;5016286;28;19979;-75
2022/06/11 09:40:12;;;;;;;;;;;11.60;97.60;;;;;;5016197;28;19909;-75
2022/06/11 09:43:03;;;;;;;;;;;11.60;97.60;;;;;;5015633;28;19917;-75
2022/06/11 09:45:36;;;;;;;;;;;11.60;98.00;;;;;;5016157;28;19921;-75
2022/06/11 09:48:22;;;;;;;;;;;11.60;98.30;;;;;;5016085;28;19909;-76
2022/06/11 09:51:01;;;;;;;;;;;11.60;98.00;;;;;;5015753;28;19948;-75
2022/06/11 09:53:46;;;;;;;;;;;11.60;97.80;;;;;;5015943;28;20376;-75
2022/06/11 09:56:25;;;;;;;;;;;11.50;98.10;;;;;;5015767;28;19919;-76
2022/06/11 09:59:09;;;;;;;;;;;11.50;97.80;;;;;;5016018;28;20428;-75
2022/06/11 10:01:45;;;;;;;;;;;11.50;97.90;;;;;;5014882;28;20468;-75
2022/06/11 10:04:14;;;;;;;;;;;11.50;98.40;;;;;;5015735;28;19913;-75
2022/06/11 10:06:46;;;;;;;;;;;11.50;98.00;;;;;;5015698;28;19917;-74
2022/06/11 10:09:24;;;;;;;;;;;11.40;98.00;;;;;;5015843;28;20455;-75
2022/06/11 10:11:53;;;;;;;;;;;11.50;98.10;;;;;;5030805;28;19909;-75
2022/06/11 10:14:29;;;;;;;;;;;11.40;98.00;;;;;;5015766;28;19909;-75
2022/06/11 10:16:59;;;;;;;;;;;11.40;98.20;;;;;;5015774;28;20296;-75
2022/06/11 10:19:30;;;;;;;;;;;11.40;97.90;;;;;;5015597;28;19916;-75
2022/06/11 10:22:03;;;;;;;;;;;11.40;98.00;;;;;;5015621;28;19913;-75
2022/06/11 10:24:31;;;;;;;;;;;11.30;98.20;;;;;;5015486;28;19961;-75
2022/06/11 10:27:00;;;;;;;;;;;11.30;98.80;;;;;;5015476;28;19925;-75
2022/06/11 10:29:35;;;;;;;;;;;11.20;98.40;;;;;;5030545;28;20084;-75
2022/06/11 10:32:08;;;;;;;;;;;11.20;98.40;;;;;;5015139;28;19910;-77
2022/06/11 10:34:37;;;;;;;;;;;11.20;98.00;;;;;;5015199;28;19909;-76
2022/06/11 10:37:19;;;;;;;;;;;11.20;97.90;;;;;;5015018;28;19956;-76
2022/06/11 10:40:09;;;;;;;;;;;11.20;98.20;;;;;;5014670;28;19916;-76
2022/06/11 10:42:38;;;;;;;;;;;11.10;98.30;;;;;;5009455;28;19909;-76
2022/06/11 10:45:08;;;;;;;;;;;11.20;98.80;;;;;;5014774;28;20262;-76
2022/06/11 10:47:54;;;;;;;;;;;11.10;98.50;;;;;;5014754;28;20014;-75
2022/06/11 10:50:38;;;;;;;;;;;11.10;98.30;;;;;;5015229;28;20269;-75
2022/06/11 10:53:23;;;;;;;;;;;11.00;98.20;;;;;;5014881;28;20000;-76
2022/06/11 10:55:50;;;;;;;;;;;11.00;98.40;;;;;;5014618;28;19924;-75
2022/06/11 10:58:29;;;;;;;;;;;11.00;98.70;;;;;;5014984;28;19916;-76
2022/06/11 11:01:03;;;;;;;;;;;11.00;98.70;;;;;;5014214;28;19910;-76
2022/06/11 11:03:33;;;;;;;;;;;11.00;98.50;;;;;;5014703;28;19917;-75
2022/06/11 11:06:01;;;;;;;;;;;11.00;98.70;;;;;;5014699;28;19918;-76
2022/06/11 11:08:28;;;;;;;;;;;10.90;98.70;;;;;;5014468;28;19909;-77
2022/06/11 11:10:56;;;;;;;;;;;10.90;98.90;;;;;;5014424;28;19920;-76
2022/06/11 11:13:32;;;;;;;;;;;11.00;99.50;;;;;;5014437;28;19913;-76
2022/06/11 11:16:09;;;;;;;;;;;10.90;99.00;;;;;;5014462;28;20008;-76
2022/06/11 11:18:41;;;;;;;;;;;10.90;99.20;;;;;;5014598;28;19944;-76
2022/06/11 11:21:16;;;;;;;;;;;11.00;98.90;;;;;;5014330;28;20349;-76
2022/06/11 11:23:43;;;;;;;;;;;10.90;99.50;;;;;;5014223;28;19910;-77
2022/06/11 11:26:16;;;;;;;;;;;10.90;99.00;;;;;;5014008;28;20016;-76
2022/06/11 11:28:55;;;;;;;;;;;10.90;99.30;;;;;;5014266;28;19913;-74
2022/06/11 11:31:27;;;;;;;;;;;10.80;99.10;;;;;;5014202;28;19910;-75
2022/06/11 11:33:58;;;;;;;;;;;10.80;99.10;;;;;;5014098;28;19914;-75
2022/06/11 11:36:26;;;;;;;;;;;10.70;99.20;;;;;;4994898;28;19916;-76
2022/06/11 11:39:18;;;;;;;;;;;10.80;98.80;;;;;;4992244;28;19914;-76
2022/06/11 11:41:50;;;;;;;;;;;10.80;98.90;;;;;;4992173;28;19910;-76
2022/06/11 11:44:18;;;;;;;;;;;10.80;98.70;;;;;;4992381;28;20281;-76
2022/06/11 11:46:48;;;;;;;;;;;10.80;98.80;;;;;;4992295;28;19975;-76
2022/06/11 11:49:33;;;;;;;;;;;10.80;99.40;;;;;;4991977;28;20335;-77
2022/06/11 11:52:10;;;;;;;;;;;10.80;99.20;;;;;;4992178;28;19913;-77
2022/06/11 11:54:38;;;;;;;;;;;10.90;99.30;;;;;;4991709;28;20341;-77
2022/06/11 11:57:06;;;;;;;;;;;10.80;98.40;;;;;;4992221;28;19910;-76
2022/06/11 11:59:33;;;;;;;;;;;10.80;98.90;;;;;;4992055;28;19909;-77
2022/06/11 12:02:15;;;;;;;;;;;10.80;98.90;;;;;;4991979;28;19917;-77
2022/06/11 12:05:01;;;;;;;;;;;10.80;98.80;;;;;;4992104;28;19917;-77
2022/06/11 12:07:34;;;;;;;;;;;10.80;99.00;;;;;;4991837;28;20000;-76
2022/06/11 12:10:21;;;;;;;;;;;10.80;98.60;;;;;;4991340;28;19910;-77
2022/06/11 12:12:51;;;;;;;;;;;10.70;98.60;;;;;;4983955;28;20013;-77
2022/06/11 12:15:22;;;;;;;;;;;10.60;98.80;;;;;;4991811;28;20292;-76
2022/06/11 12:17:58;;;;;;;;;;;10.60;98.80;;;;;;4992029;28;19917;-76
2022/06/11 12:20:25;;;;;;;;;;;10.60;99.00;;;;;;4991978;28;19914;-76
2022/06/11 12:22:58;;;;;;;;;;;10.60;99.00;;;;;;4991356;28;20459;-76
2022/06/11 12:25:48;;;;;;;;;;;10.50;98.90;;;;;;4991503;28;19965;-79
2022/06/11 12:28:16;;;;;;;;;;;10.50;99.20;;;;;;4972413;28;19925;-78
2022/06/11 12:30:43;;;;;;;;;;;10.50;99.90;;;;;;4991868;28;19910;-78
2022/06/11 12:33:14;;;;;;;;;;;10.50;99.40;;;;;;4991682;28;20005;-77
2022/06/11 12:35:56;;;;;;;;;;;10.50;99.20;;;;;;4991574;28;19909;-77
2022/06/11 12:38:43;;;;;;;;;;;10.50;99.60;;;;;;4991333;28;19916;-77
2022/06/11 12:41:16;;;;;;;;;;;10.40;99.60;;;;;;4991371;28;20418;-76
2022/06/11 12:43:43;;;;;;;;;;;10.40;99.90;;;;;;4991925;28;19946;-77
2022/06/11 12:46:09;;;;;;;;;;;10.50;99.30;;;;;;4991545;28;19957;-77
2022/06/11 12:48:38;;;;;;;;;;;10.50;99.90;;;;;;4991806;28;19914;-77
2022/06/11 12:51:11;;;;;;;;;;;10.50;99.50;;;;;;4991506;28;19909;-77
2022/06/11 12:53:53;;;;;;;;;;;10.50;99.50;;;;;;4990307;28;20333;-76
2022/06/11 12:56:32;;;;;;;;;;;10.50;99.40;;;;;;4991630;28;19910;-77
2022/06/11 12:59:17;;;;;;;;;;;10.60;99.60;;;;;;4991566;28;20083;-76
2022/06/11 13:01:43;;;;;;;;;;;10.60;99.60;;;;;;4993673;28;19910;-76
2022/06/11 13:04:24;;;;;;;;;;;10.60;99.50;;;;;;4992357;28;19914;-76
2022/06/11 13:06:56;;;;;;;;;;;10.70;99.50;;;;;;4991221;28;19943;-76
2022/06/11 13:09:35;;;;;;;;;;;10.70;99.40;;;;;;4990862;28;19910;-76
2022/06/11 13:12:21;;;;;;;;;;;10.70;99.40;;;;;;5006694;28;19910;-76
2022/06/11 13:14:49;;;;;;;;;;;10.70;99.50;;;;;;4991496;28;19932;-76
2022/06/11 13:17:29;;;;;;;;;;;10.70;99.60;;;;;;4991547;28;19918;-76
2022/06/11 13:20:15;;;;;;;;;;;10.70;99.40;;;;;;4990971;28;19917;-76
2022/06/11 13:22:54;;;;;;;;;;;10.70;99.50;;;;;;4990609;28;19910;-76
2022/06/11 13:25:24;;;;;;;;;;;10.60;99.20;;;;;;4994707;28;19966;-76
2022/06/11 13:28:02;;;;;;;;;;;10.60;99.50;;;;;;4994716;28;20375;-76
2022/06/11 13:30:47;;;;;;;;;;;10.50;99.80;;;;;;4994890;28;19910;-76
2022/06/11 13:33:19;;;;;;;;;;;10.60;99.90;;;;;;4994416;28;19961;-76
2022/06/11 13:35:53;;;;;;;;;;;10.50;99.50;;;;;;4994471;28;19914;-76
2022/06/11 13:38:31;;;;;;;;;;;10.60;99.50;;;;;;4994167;28;20331;-76
2022/06/11 13:41:16;;;;;;;;;;;10.60;99.30;;;;;;4994797;28;20215;-76
2022/06/11 13:44:03;;;;;;;;;;;10.60;99.20;;;;;;4994413;28;19983;-76
2022/06/11 13:46:32;;;;;;;;;;;10.60;99.80;;;;;;4994035;28;19964;-76
2022/06/11 13:49:17;;;;;;;;;;;10.60;99.40;;;;;;4994534;28;19921;-76
2022/06/11 13:51:46;;;;;;;;;;;10.50;99.40;;;;;;4993680;28;20008;-76
2022/06/11 13:57:11;;;;;;;;;;;10.40;99.50;;;;;;4994525;28;19921;-76
2022/06/11 13:59:45;;;;;;;;;;;10.50;99.70;;;;;;4993893;28;19973;-76
2022/06/11 14:02:29;;;;;;;;;;;10.50;99.70;;;;;;4994522;28;19917;-76
2022/06/11 14:05:00;;;;;;;;;;;10.50;99.50;;;;;;4994245;28;19917;-76
2022/06/11 14:07:29;;;;;;;;;;;10.40;99.90;;;;;;4993623;28;20551;-76
2022/06/11 14:10:21;;;;;;;;;;;10.40;99.80;;;;;;4993940;28;19914;-77
2022/06/11 14:12:49;;;;;;;;;;;10.40;99.80;;;;;;4993774;28;19914;-76
2022/06/11 14:15:31;;;;;;;;;;;10.40;99.70;;;;;;4994061;28;19917;-76
2022/06/11 14:18:01;;;;;;;;;;;10.40;99.90;;;;;;4993988;28;20000;-77
2022/06/11 14:20:47;;;;;;;;;;;10.40;99.70;;;;;;4993894;28;19910;-77
2022/06/11 14:23:13;;;;;;;;;;;10.50;99.40;;;;;;4993186;28;19931;-77
2022/06/11 14:25:44;;;;;;;;;;;10.50;99.70;;;;;;5003253;28;19997;-76
2022/06/11 14:28:14;;;;;;;;;;;10.40;99.90;;;;;;4993761;28;20277;-76
2022/06/11 14:30:42;;;;;;;;;;;10.40;99.90;;;;;;4993790;28;20322;-77
2022/06/11 14:33:15;;;;;;;;;;;10.40;99.90;;;;;;4993741;28;20480;-77
2022/06/11 14:35:50;;;;;;;;;;;10.40;99.50;;;;;;4992582;28;19914;-77
2022/06/11 14:38:35;;;;;;;;;;;10.50;99.90;;;;;;4993257;28;19964;-77
2022/06/11 14:41:11;;;;;;;;;;;10.50;99.70;;;;;;4993696;28;19914;-77
2022/06/11 14:43:57;;;;;;;;;;;10.50;99.80;;;;;;4993405;28;19914;-77
2022/06/11 14:46:24;;;;;;;;;;;10.50;99.90;;;;;;4993416;28;19922;-76
2022/06/11 14:48:52;;;;;;;;;;;10.50;99.60;;;;;;4993411;28;19914;-76